Flight Track Log - Related Links

Times and Time Zones

All times are in EST time to prevent confusion due to time zone crossing. See the N4113B flight status page for this flight to view local times or setup timezone preferences in your user account.

Time Position Orientation Groundspeed Altitude Reporting Facility
EST Latitude Longitude Course Direction KTS MPH feet Rate Location/Type
Wed 04:37:00 PM 41.2026 -70.4793 261° West  Level FlightAware Approximate
Wed 04:38:00 PM 41.1995 -70.5051 263° West  Level FlightAware Approximate
Wed 04:39:00 PM 41.1970 -70.5311 263° West  Level FlightAware Approximate
Wed 04:40:00 PM 41.1946 -70.5571 263° West  Level FlightAware Approximate
Wed 04:41:00 PM 41.1921 -70.5831 263° West  Level FlightAware Approximate
Wed 04:42:00 PM 41.1896 -70.6091 263° West  Level FlightAware Approximate
Wed 04:43:00 PM 41.1871 -70.6351 263° West  Level FlightAware Approximate
Wed 04:44:00 PM 41.1847 -70.6611 263° West  Level FlightAware Approximate
Wed 04:45:00 PM 41.1822 -70.6871 263° West  Level FlightAware Approximate
Wed 04:46:00 PM 41.1797 -70.7130 263° West  Level FlightAware Approximate
Wed 04:47:00 PM 41.1772 -70.7390 263° West  Level FlightAware Approximate
Wed 04:48:00 PM 41.1746 -70.7650 263° West  Level FlightAware Approximate
Wed 04:49:00 PM 41.1721 -70.7910 263° West  Level FlightAware Approximate
Wed 04:50:00 PM 41.1696 -70.8169 263° West  Level FlightAware Approximate
Wed 04:51:00 PM 41.1671 -70.8429 263° West  Level FlightAware Approximate
Wed 04:52:00 PM 41.1645 -70.8689 263° West  Level FlightAware Approximate
Wed 04:53:00 PM 41.1620 -70.8949 263° West  Level FlightAware Approximate
Wed 04:54:00 PM 41.1595 -70.9208 263° West  Level FlightAware Approximate
Wed 04:55:00 PM 41.1569 -70.9468 263° West  Level FlightAware Approximate
Wed 04:56:00 PM 41.1543 -70.9727 263° West  Level FlightAware Approximate
Wed 04:57:00 PM 41.1518 -70.9987 263° West  Level FlightAware Approximate
Wed 04:58:00 PM 41.1493 -71.0247 263° West  Level FlightAware Approximate
Wed 04:59:00 PM 41.1470 -71.0507 263° West  Level FlightAware Approximate
Wed 05:00:00 PM 41.1447 -71.0767 263° West  Level FlightAware Approximate
Wed 05:01:00 PM 41.1423 -71.1027 263° West  Level FlightAware Approximate
Wed 05:02:00 PM 41.1400 -71.1287 263° West  Level FlightAware Approximate
Wed 05:03:00 PM 41.1377 -71.1547 263° West  Level FlightAware Approximate
Wed 05:04:00 PM 41.1353 -71.1806 263° West  Level FlightAware Approximate
Wed 05:05:00 PM 41.1330 -71.2066 263° West  Level FlightAware Approximate
Wed 05:06:00 PM 41.1307 -71.2326 263° West  Level FlightAware Approximate
Wed 05:07:00 PM 41.1283 -71.2586 263° West  Level FlightAware Approximate
Wed 05:08:00 PM 41.1259 -71.2846 263° West  Level FlightAware Approximate
Wed 05:09:00 PM 41.1236 -71.3106 263° West  Level FlightAware Approximate
Wed 05:10:00 PM 41.1212 -71.3366 263° West  Level FlightAware Approximate
Wed 05:11:00 PM 41.1188 -71.3625 263° West  Level FlightAware Approximate
Wed 05:12:00 PM 41.1165 -71.3885 263° West  Level FlightAware Approximate
Wed 05:13:00 PM 41.1141 -71.4145 263° West  Level FlightAware Approximate
Wed 05:14:00 PM 41.1117 -71.4405 263° West  Level FlightAware Approximate
Wed 05:15:00 PM 41.1093 -71.4664 263° West  Level FlightAware Approximate
Wed 05:16:00 PM 41.1068 -71.4924 263° West  Level FlightAware Approximate
Wed 05:17:00 PM 41.1044 -71.5184 263° West  Level FlightAware Approximate
Wed 05:18:00 PM 41.1020 -71.5443 263° West  Level FlightAware Approximate
Wed 05:19:00 PM 41.0996 -71.5703 263° West  Level FlightAware Approximate
Wed 05:20:00 PM 41.0972 -71.5963 263° West  Level FlightAware Approximate
Wed 05:21:00 PM 41.0947 -71.6222 263° West  Level FlightAware Approximate
Wed 05:22:00 PM 41.0923 -71.6482 263° West  Level FlightAware Approximate
Wed 05:23:00 PM 41.0898 -71.6741 263° West  Level FlightAware Approximate
Wed 05:24:00 PM 41.0874 -71.7001 263° West  Level FlightAware Approximate
Wed 05:25:00 PM 41.0849 -71.7260 263° West  Level FlightAware Approximate
Wed 05:26:00 PM 41.0825 -71.7520 263° West  Level FlightAware Approximate
Wed 05:27:00 PM 41.0800 -71.7779 263° West  Level FlightAware Approximate
Wed 05:28:00 PM 41.0775 -71.8039 263° West  Level FlightAware Approximate
Wed 05:29:00 PM 41.0750 -71.8298 263° West  Level FlightAware Approximate
Wed 05:30:00 PM 41.0725 -71.8558 263° West  Level FlightAware Approximate
Wed 05:31:00 PM 41.0700 -71.8817 263° West  Level FlightAware Approximate
Wed 05:32:00 PM 41.0675 -71.9076 263° West  Level FlightAware Approximate
Wed 05:33:00 PM 41.0611 -71.9320 244° Southwest  Level FlightAware Approximate
Wed 05:34:00 PM 41.0526 -71.9556 244° Southwest  Level FlightAware Approximate
Wed 05:35:00 PM 41.0440 -71.9791 244° Southwest  Level FlightAware Approximate
Wed 05:36:00 PM 41.0354 -72.0027 244° Southwest  Level FlightAware Approximate
Wed 05:37:00 PM 41.0269 -72.0262 244° Southwest  Level FlightAware Approximate
Wed 05:38:00 PM 41.0183 -72.0497 244° Southwest  Level FlightAware Approximate
Wed 05:39:00 PM 41.0097 -72.0733 244° Southwest  Level FlightAware Approximate
Wed 05:40:00 PM 41.0012 -72.0968 244° Southwest  Level FlightAware Approximate
Wed 05:41:00 PM 40.9925 -72.1203 244° Southwest  Level FlightAware Approximate
Wed 05:42:00 PM 40.9839 -72.1438 244° Southwest  Level FlightAware Approximate
Wed 05:43:00 PM 40.9753 -72.1673 244° Southwest  Level FlightAware Approximate
Wed 05:44:00 PM 40.9666 -72.1907 244° Southwest  Level FlightAware Approximate
Wed 05:45:00 PM 40.9580 -72.2142 244° Southwest  Level FlightAware Approximate
Wed 05:46:00 PM 40.9494 -72.2376 244° Southwest  Level FlightAware Approximate
Wed 05:47:00 PM 40.9407 -72.2611 244° Southwest  Level FlightAware Approximate
Wed 05:48:00 PM 40.9320 -72.2845 244° Southwest  Level FlightAware Approximate
Wed 05:49:00 PM 40.9234 -72.3080 244° Southwest  Level FlightAware Approximate
Wed 05:50:00 PM 40.9147 -72.3314 244° Southwest  Level FlightAware Approximate
Wed 05:51:00 PM 40.9061 -72.3548 244° Southwest  Level FlightAware Approximate
Wed 05:52:00 PM 40.8974 -72.3783 244° Southwest  Level FlightAware Approximate
Wed 05:53:00 PM 40.8887 -72.4017 244° Southwest  Level FlightAware Approximate
Wed 05:54:00 PM 40.8800 -72.4251 244° Southwest  Level FlightAware Approximate
Wed 05:55:00 PM 40.8713 -72.4485 244° Southwest  Level FlightAware Approximate
Wed 05:56:00 PM 40.8626 -72.4719 244° Southwest  Level FlightAware Approximate
Wed 05:57:00 PM 40.8539 -72.4952 244° Southwest  Level FlightAware Approximate
Wed 05:58:00 PM 40.8452 -72.5186 244° Southwest  Level FlightAware Approximate
Wed 05:59:00 PM 40.8365 -72.5420 244° Southwest  Level FlightAware Approximate
Wed 06:00:00 PM 40.8278 -72.5654 244° Southwest  Level FlightAware Approximate
Wed 06:01:00 PM 40.8190 -72.5887 244° Southwest  Level FlightAware Approximate
Wed 06:02:00 PM 40.8103 -72.6121 244° Southwest  Level FlightAware Approximate
Wed 06:03:00 PM 40.8016 -72.6355 244° Southwest  Level FlightAware Approximate
Wed 06:04:00 PM 40.7929 -72.6588 244° Southwest  Level FlightAware Approximate
Wed 06:05:00 PM 40.7841 -72.6821 244° Southwest  Level FlightAware Approximate
Wed 06:06:00 PM 40.7754 -72.7055 244° Southwest  Level FlightAware Approximate
Wed 06:07:00 PM 40.7666 -72.7288 244° Southwest  Level FlightAware Approximate
Wed 06:08:00 PM 40.7579 -72.7521 244° Southwest  Level FlightAware Approximate
Wed 06:09:00 PM 40.7491 -72.7754 244° Southwest  Level FlightAware Approximate
Wed 06:10:00 PM 40.7404 -72.7987 244° Southwest  Level FlightAware Approximate
Wed 06:11:00 PM 40.7316 -72.8220 244° Southwest  Level FlightAware Approximate
Wed 06:12:00 PM 40.7228 -72.8453 244° Southwest  Level FlightAware Approximate
Wed 06:13:00 PM 40.7141 -72.8686 244° Southwest  Level FlightAware Approximate
Wed 06:14:00 PM 40.7053 -72.8919 244° Southwest  Level FlightAware Approximate
Wed 06:15:00 PM 40.6965 -72.9152 244° Southwest  Level FlightAware Approximate
Wed 06:16:00 PM 40.6877 -72.9385 244° Southwest  Level FlightAware Approximate
Wed 06:17:00 PM 40.6789 -72.9617 243° Southwest  Level FlightAware Approximate
Wed 06:18:00 PM 40.6700 -72.9849 243° Southwest  Level FlightAware Approximate
Wed 06:19:00 PM 40.6611 -73.0081 243° Southwest  Level FlightAware Approximate
Wed 06:20:00 PM 40.6522 -73.0313 243° Southwest  Level FlightAware Approximate
Wed 06:21:00 PM 40.6434 -73.0545 243° Southwest  Level FlightAware Approximate
Wed 06:22:00 PM 40.6345 -73.0777 243° Southwest  Level FlightAware Approximate
Wed 06:23:00 PM 40.6256 -73.1009 243° Southwest  Level FlightAware Approximate
Wed 06:24:00 PM 40.6167 -73.1241 243° Southwest  Level FlightAware Approximate
Wed 06:25:00 PM 40.6078 -73.1472 243° Southwest  Level FlightAware Approximate
Wed 06:26:00 PM 40.5989 -73.1704 243° Southwest  Level FlightAware Approximate
Wed 06:27:00 PM 40.5900 -73.1936 243° Southwest  Level FlightAware Approximate
Wed 06:28:00 PM 40.5810 -73.2167 243° Southwest  Level FlightAware Approximate
Wed 06:29:00 PM 40.5721 -73.2399 243° Southwest  Level FlightAware Approximate
Wed 06:30:00 PM 40.5632 -73.2630 243° Southwest  Level FlightAware Approximate
Wed 06:31:00 PM 40.5543 -73.2861 243° Southwest  Level FlightAware Approximate
Wed 06:32:00 PM 40.5453 -73.3093 243° Southwest  Level FlightAware Approximate
Wed 06:33:00 PM 40.5364 -73.3324 243° Southwest  Level FlightAware Approximate
Wed 06:34:00 PM 40.5275 -73.3555 243° Southwest  Level FlightAware Approximate
Wed 06:35:00 PM 40.5185 -73.3786 243° Southwest  Level FlightAware Approximate
Wed 06:36:00 PM 40.5094 -73.4016 242° Southwest  Level FlightAware Approximate
Wed 06:37:00 PM 40.5003 -73.4246 242° Southwest  Level FlightAware Approximate
Wed 06:38:00 PM 40.4912 -73.4476 242° Southwest  Level FlightAware Approximate
Wed 06:39:00 PM 40.4820 -73.4706 242° Southwest  Level FlightAware Approximate
Wed 06:40:00 PM 40.4729 -73.4935 242° Southwest  Level FlightAware Approximate
Wed 06:41:00 PM 40.4638 -73.5165 242° Southwest  Level FlightAware Approximate
Wed 06:42:00 PM 40.4546 -73.5395 242° Southwest  Level FlightAware Approximate
Wed 06:43:00 PM 40.4455 -73.5624 242° Southwest  Level FlightAware Approximate
Wed 06:44:00 PM 40.4363 -73.5854 242° Southwest  Level FlightAware Approximate
Wed 06:45:00 PM 40.4272 -73.6083 242° Southwest  Level FlightAware Approximate
Wed 06:46:00 PM 40.4180 -73.6312 242° Southwest  Level FlightAware Approximate
Wed 06:47:00 PM 40.4089 -73.6541 242° Southwest  Level FlightAware Approximate
Wed 06:48:00 PM 40.3997 -73.6771 242° Southwest  Level FlightAware Approximate
Wed 06:49:00 PM 40.3905 -73.7000 242° Southwest  Level FlightAware Approximate
Wed 06:50:00 PM 40.3813 -73.7229 242° Southwest  Level FlightAware Approximate
Wed 06:51:00 PM 40.3722 -73.7458 242° Southwest  Level FlightAware Approximate
Wed 06:52:00 PM 40.3630 -73.7687 242° Southwest  Level FlightAware Approximate
Wed 06:53:00 PM 40.3538 -73.7916 242° Southwest  Level FlightAware Approximate
Wed 06:54:00 PM 40.3446 -73.8144 242° Southwest  Level FlightAware Approximate
Wed 06:55:00 PM 40.3354 -73.8373 242° Southwest  Level FlightAware Approximate
Wed 06:56:00 PM 40.3262 -73.8602 242° Southwest  Level FlightAware Approximate
Wed 06:57:00 PM 40.3170 -73.8830 242° Southwest  Level FlightAware Approximate
Wed 06:58:00 PM 40.3078 -73.9059 242° Southwest  Level FlightAware Approximate
Wed 06:59:00 PM 40.2985 -73.9287 242° Southwest  Level FlightAware Approximate
Wed 07:00:00 PM 40.2893 -73.9516 242° Southwest  Level FlightAware Approximate
Wed 07:01:00 PM 40.2801 -73.9744 242° Southwest  Level FlightAware Approximate
Wed 07:02:00 PM 40.2709 -73.9973 242° Southwest  Level FlightAware Approximate
Wed 07:03:00 PM 40.2616 -74.0201 242° Southwest  Level FlightAware Approximate
Wed 07:04:00 PM 40.2524 -74.0429 242° Southwest  Level FlightAware Approximate
Wed 07:05:00 PM 40.2431 -74.0657 242° Southwest  Level FlightAware Approximate
Wed 07:06:00 PM 40.2339 -74.0885 242° Southwest  Level FlightAware Approximate
Wed 07:07:00 PM 40.2246 -74.1113 242° Southwest  Level FlightAware Approximate
Wed 07:08:00 PM 40.2154 -74.1341 242° Southwest  Level FlightAware Approximate
Wed 07:09:00 PM 40.2061 -74.1569 242° Southwest  Level FlightAware Approximate
Wed 07:10:00 PM 40.1968 -74.1797 242° Southwest  Level FlightAware Approximate
Wed 07:11:00 PM 40.1876 -74.2025 242° Southwest  Level FlightAware Approximate
Wed 07:12:00 PM 40.1783 -74.2252 242° Southwest  Level FlightAware Approximate
Wed 07:13:00 PM 40.1690 -74.2480 242° Southwest  Level FlightAware Approximate
Wed 07:14:00 PM 40.1597 -74.2707 242° Southwest  Level FlightAware Approximate
Wed 07:15:00 PM 40.1504 -74.2935 242° Southwest  Level FlightAware Approximate
Wed 07:16:00 PM 40.1411 -74.3162 242° Southwest  Level FlightAware Approximate
Wed 07:17:00 PM 40.1318 -74.3390 242° Southwest  Level FlightAware Approximate
Wed 07:18:00 PM 40.1225 -74.3617 242° Southwest  Level FlightAware Approximate
Wed 07:19:00 PM 40.1132 -74.3844 242° Southwest  Level FlightAware Approximate
Wed 07:20:00 PM 40.1039 -74.4071 242° Southwest  Level FlightAware Approximate
Wed 07:21:00 PM 40.0948 -74.4300 243° Southwest  Level FlightAware Approximate
Wed 07:22:00 PM 40.0859 -74.4530 243° Southwest  Level FlightAware Approximate
Wed 07:23:00 PM 40.0770 -74.4760 243° Southwest  Level FlightAware Approximate
Wed 07:24:00 PM 40.0681 -74.4990 243° Southwest  Level FlightAware Approximate
Wed 07:25:00 PM 40.0592 -74.5219 243° Southwest  Level FlightAware Approximate
Wed 07:26:00 PM 40.0503 -74.5449 243° Southwest  Level FlightAware Approximate
Wed 07:27:00 PM 40.0413 -74.5679 243° Southwest  Level FlightAware Approximate
Wed 07:28:00 PM 40.0324 -74.5908 243° Southwest  Level FlightAware Approximate
Wed 07:29:00 PM 40.0235 -74.6138 243° Southwest  Level FlightAware Approximate
Wed 07:30:00 PM 40.0145 -74.6367 243° Southwest  Level FlightAware Approximate
Wed 07:31:00 PM 40.0056 -74.6597 243° Southwest  Level FlightAware Approximate
Wed 07:32:00 PM 39.9967 -74.6826 243° Southwest  Level FlightAware Approximate
Wed 07:33:00 PM 39.9877 -74.7055 243° Southwest  Level FlightAware Approximate
Wed 07:34:00 PM 39.9786 -74.7283 242° Southwest  Level FlightAware Approximate
Wed 07:35:00 PM 39.9694 -74.7511 242° Southwest  Level FlightAware Approximate
Wed 07:36:00 PM 39.9602 -74.7738 242° Southwest  Level FlightAware Approximate
Wed 07:37:00 PM 39.9510 -74.7966 242° Southwest  Level FlightAware Approximate
Wed 07:38:00 PM 39.9418 -74.8193 242° Southwest  Level FlightAware Approximate
Wed 07:39:00 PM 39.9326 -74.8420 242° Southwest  Level FlightAware Approximate
Wed 07:40:00 PM 39.9233 -74.8648 242° Southwest  Level FlightAware Approximate
Wed 07:41:00 PM 39.9141 -74.8875 242° Southwest  Level FlightAware Approximate
Wed 07:42:00 PM 39.9049 -74.9102 242° Southwest  Level FlightAware Approximate
Wed 07:43:00 PM 39.8956 -74.9329 242° Southwest  Level FlightAware Approximate
Wed 07:44:00 PM 39.8864 -74.9556 242° Southwest  Level FlightAware Approximate
Wed 07:45:00 PM 39.8772 -74.9783 242° Southwest  Level FlightAware Approximate
Wed 07:46:00 PM 39.8679 -75.0010 242° Southwest  Level FlightAware Approximate
Wed 07:47:00 PM 39.8587 -75.0236 242° Southwest  Level FlightAware Approximate
Wed 07:48:00 PM 39.8494 -75.0463 242° Southwest  Level FlightAware Approximate
Wed 07:49:00 PM 39.8401 -75.0690 242° Southwest  Level FlightAware Approximate
Wed 07:50:00 PM 39.8309 -75.0916 242° Southwest  Level FlightAware Approximate
Wed 07:51:00 PM 39.8216 -75.1143 242° Southwest  Level FlightAware Approximate
Wed 07:52:00 PM 39.8123 -75.1369 242° Southwest  Level FlightAware Approximate
Wed 07:53:00 PM 39.8030 -75.1596 242° Southwest  Level FlightAware Approximate
Wed 07:54:00 PM 39.7937 -75.1822 242° Southwest  Level FlightAware Approximate
Wed 07:55:00 PM 39.7845 -75.2048 242° Southwest  Level FlightAware Approximate
Wed 07:56:00 PM 39.7752 -75.2274 242° Southwest  Level FlightAware Approximate
Wed 07:57:00 PM 39.7659 -75.2501 242° Southwest  Level FlightAware Approximate
Wed 07:58:00 PM 39.7566 -75.2727 242° Southwest  Level FlightAware Approximate
Wed 07:59:00 PM 39.7472 -75.2953 242° Southwest  Level FlightAware Approximate
Wed 08:00:00 PM 39.7379 -75.3179 242° Southwest  Level FlightAware Approximate
Wed 08:01:00 PM 39.7286 -75.3405 242° Southwest  Level FlightAware Approximate
Wed 08:02:00 PM 39.7193 -75.3631 242° Southwest  Level FlightAware Approximate
Wed 08:03:00 PM 39.7100 -75.3856 242° Southwest  Level FlightAware Approximate
Wed 08:04:00 PM 39.7006 -75.4082 242° Southwest  Level FlightAware Approximate
Wed 08:05:00 PM 39.6913 -75.4308 242° Southwest  Level FlightAware Approximate
Wed 08:06:00 PM 39.6820 -75.4533 242° Southwest  Level FlightAware Approximate
Wed 08:07:00 PM 39.6726 -75.4759 242° Southwest  Level FlightAware Approximate
Wed 08:08:00 PM 39.6633 -75.4985 242° Southwest  Level FlightAware Approximate
Wed 08:09:00 PM 39.6539 -75.5210 242° Southwest  Level FlightAware Approximate
Wed 08:10:00 PM 39.6446 -75.5435 242° Southwest  Level FlightAware Approximate
Wed 08:11:00 PM 39.6352 -75.5661 242° Southwest  Level FlightAware Approximate
Wed 08:12:00 PM 39.6259 -75.5886 242° Southwest  Level FlightAware Approximate
Wed 08:13:00 PM 39.6165 -75.6111 242° Southwest  Level FlightAware Approximate
Wed 08:14:00 PM 39.6071 -75.6336 242° Southwest  Level FlightAware Approximate
Wed 08:15:00 PM 39.5977 -75.6561 242° Southwest  Level FlightAware Approximate
Wed 08:16:00 PM 39.5883 -75.6786 242° Southwest  Level FlightAware Approximate
Wed 08:17:00 PM 39.5790 -75.7011 242° Southwest  Level FlightAware Approximate
Wed 08:18:00 PM 39.5696 -75.7236 242° Southwest  Level FlightAware Approximate
Wed 08:19:00 PM 39.5602 -75.7461 242° Southwest  Level FlightAware Approximate
Wed 08:20:00 PM 39.5508 -75.7686 242° Southwest  Level FlightAware Approximate
Wed 08:21:00 PM 39.5414 -75.7910 242° Southwest  Level FlightAware Approximate
Wed 08:22:00 PM 39.5320 -75.8135 242° Southwest  Level FlightAware Approximate
Wed 08:23:00 PM 39.5226 -75.8360 241° Southwest  Level FlightAware Approximate
Wed 08:24:00 PM 39.5131 -75.8584 241° Southwest  Level FlightAware Approximate
Wed 08:25:00 PM 39.5037 -75.8808 241° Southwest  Level FlightAware Approximate
Wed 08:26:00 PM 39.4943 -75.9033 241° Southwest  Level FlightAware Approximate
Wed 08:27:00 PM 39.4848 -75.9257 241° Southwest  Level FlightAware Approximate
Wed 08:28:00 PM 39.4754 -75.9481 241° Southwest  Level FlightAware Approximate
Wed 08:29:00 PM 39.4659 -75.9705 241° Southwest  Level FlightAware Approximate
Wed 08:30:00 PM 39.4565 -75.9929 241° Southwest  Level FlightAware Approximate
Wed 08:31:00 PM 39.4470 -76.0153 241° Southwest  Level FlightAware Approximate
Wed 08:32:00 PM 39.4376 -76.0377 241° Southwest  Level FlightAware Approximate
Wed 08:33:00 PM 39.4281 -76.0601 241° Southwest  Level FlightAware Approximate
Wed 08:34:00 PM 39.4186 -76.0825 241° Southwest  Level FlightAware Approximate
Wed 08:35:00 PM 39.4091 -76.1049 241° Southwest  Level FlightAware Approximate
Wed 08:36:00 PM 39.3997 -76.1272 241° Southwest  Level FlightAware Approximate
Wed 08:37:00 PM 39.3902 -76.1496 241° Southwest  Level FlightAware Approximate
Wed 08:38:00 PM 39.3807 -76.1720 241° Southwest  Level FlightAware Approximate
Wed 08:39:00 PM 39.3712 -76.1943 241° Southwest  Level FlightAware Approximate
Wed 08:40:00 PM 39.3617 -76.2167 241° Southwest  Level FlightAware Approximate
Wed 08:41:00 PM 39.3522 -76.2390 241° Southwest  Level FlightAware Approximate
Wed 08:42:00 PM 39.3427 -76.2613 241° Southwest  Level FlightAware Approximate
Wed 08:43:00 PM 39.3332 -76.2837 247° West  Level FlightAware Approximate
Wed 08:44:00 PM 39.3254 -76.3071 247° West  Level FlightAware Approximate
Wed 08:45:00 PM 39.3176 -76.3305 247° West  Level FlightAware Approximate
Wed 08:46:00 PM 39.3073 -76.3521 237° Southwest  Level FlightAware Approximate
Wed 08:47:00 PM 39.2966 -76.3735 237° Southwest  Level FlightAware Approximate
Wed 08:48:00 PM 39.2859 -76.3949 237° Southwest  Level FlightAware Approximate
Wed 08:49:00 PM 39.2752 -76.4163 237° Southwest  Level FlightAware Approximate
Wed 08:50:00 PM 39.2651 -76.4381 247° West  Level FlightAware Approximate
Wed 08:51:00 PM 39.2573 -76.4615 247° West  Level FlightAware Approximate
Wed 08:52:00 PM 39.2495 -76.4849 247° West  Level FlightAware Approximate
Wed 08:53:00 PM 39.2417 -76.5083 247° West  Level FlightAware Approximate
Wed 08:54:00 PM 39.2339 -76.5316 247° West  Level FlightAware Approximate
Wed 08:55:00 PM 39.2189 -76.5478 218° Southwest  Level FlightAware Approximate
Wed 08:56:00 PM 39.2033 -76.5634 218° Southwest  Level FlightAware Approximate
Wed 08:57:00 PM 39.1939 -76.5851 247° West  Level FlightAware Approximate
Wed 08:58:00 PM 39.1861 -76.6085 247° West  Level FlightAware Approximate
Wed 08:59:00 PM 39.1783 -76.6318 247° West  Level FlightAware Approximate
Wed 09:00:00 PM 39.1705 -76.6552 247° West  Level FlightAware Approximate
Wed 09:01:00 PM 39.1667 -76.6667 247° West  Level FlightAware Approximate
Wed 09:02:00 PM 39.1754 -76.6683 247° West  Level Estimated
Wed 09:03:00 PM 39.1754 -76.6683 247° West  Level Estimated
Wed 09:04:00 PM 39.1754 -76.6683 247° West  Level Estimated
Wed 09:05:00 PM 39.1754 -76.6683 247° West  Level Estimated
Wed 09:06:00 PM 39.1754 -76.6683 247° West  Level Estimated
Wed 09:07:00 PM 39.1754 -76.6683 247° West  Level Estimated
Wed 09:08:00 PM 39.1754 -76.6683 247° West  Level Estimated
Wed 09:09:00 PM 39.1754 -76.6683 247° West  Level Estimated
Wed 09:10:00 PM 39.1754 -76.6683 247° West  Level Estimated
Wed 09:11:00 PM 39.1754 -76.6683 247° West  Level Estimated
Wed 09:12:00 PM 39.1754 -76.6683 247° West  Level Estimated
Wed 09:13:00 PM 39.1754 -76.6683 247° West  Level Estimated
Wed 09:14:00 PM 39.1754 -76.6683 247° West  Level Estimated
Wed 09:15:00 PM 39.1754 -76.6683 247° West  Level Estimated
Wed 09:16:00 PM 39.1754 -76.6683 247° West  Level Estimated

Login

Don't have an account? Register now (free) for customized features, flight alerts, and more!